Manchester, Pennsylvania
Current Conditions -  °F | °C
As of 7:56 AM on Thursday 23 Oct 2014 (Local Time) from KMDT Reporting Station
Overcast Overcast  
Wind Chill: 53°   Ceiling: 3200
Heat Index: 53°   Visibility: 10mi
Dew Point: 41°   Wind: 13mph
Humidity: 64%   Direction: 350°N
Pressure: 29.88"   Gusts: 20mph
Location:  40.06°N, 76.72°W
Report Text: KMDT 231156Z 35011G17KT 10SM OVC032 12/05 A2988 RMK AO2 SLP120 60000 70008 T01170050 10117 20111 53005
Loading
Personal Weather Stations






























Interactive Weather Map
Tropical Storm Tracking
New forecast layout! Learn more

10-Day Weather Forecast

Advertisements
Track Severe Weather on mobile